Time;durP1;ratioP1;P1;durP2;ratioP2;P2;SDS_P1;SDS_P2;PMS_P1;PMS_P2;Temp;Humidity;BMP_temperature;BMP_pressure;BME280_temperature;BME280_humidity;BME280_pressure;Samples;Min_cycle;Max_cycle;Signal;HPM_P1;HPM_P2
2022/09/24 00:00:32;;;;;;;;;;;13.50;99.90;;;;;;12469872;28;19964;-86
2022/09/24 00:06:39;;;;;;;;;;;13.50;99.90;;;;;;12478329;28;19935;-86
2022/09/24 00:12:41;;;;;;;;;;;13.50;99.90;;;;;;12460105;28;20386;-86
2022/09/24 00:18:43;;;;;;;;;;;13.40;99.90;;;;;;12485283;28;19925;-86
2022/09/24 00:31:05;;;;;;;;;;;13.40;99.90;;;;;;12489385;28;19929;-86
2022/09/24 00:37:07;;;;;;;;;;;13.30;99.90;;;;;;12477533;28;19925;-86
2022/09/24 00:43:22;;;;;;;;;;;13.30;99.90;;;;;;12487687;28;19926;-86
2022/09/24 00:49:23;;;;;;;;;;;13.30;99.90;;;;;;12474612;28;19926;-86
2022/09/24 00:55:25;;;;;;;;;;;13.10;99.90;;;;;;12478866;28;20304;-86
2022/09/24 01:01:28;;;;;;;;;;;13.00;99.90;;;;;;12476837;28;19926;-86
2022/09/24 01:07:30;;;;;;;;;;;12.90;99.90;;;;;;12472642;28;20504;-86
2022/09/24 01:13:39;;;;;;;;;;;12.90;99.90;;;;;;12475988;28;19932;-86
2022/09/24 01:20:02;;;;;;;;;;;12.80;99.90;;;;;;12481546;28;19925;-86
2022/09/24 01:26:07;;;;;;;;;;;12.80;99.90;;;;;;12458920;28;19955;-86
2022/09/24 01:32:38;;;;;;;;;;;12.70;99.90;;;;;;12480855;28;20381;-86
2022/09/24 01:38:41;;;;;;;;;;;12.70;99.90;;;;;;12468645;28;19925;-86
2022/09/24 01:44:43;;;;;;;;;;;12.50;99.90;;;;;;12479975;28;20301;-86
2022/09/24 01:50:57;;;;;;;;;;;12.60;99.90;;;;;;12477841;28;19928;-86
2022/09/24 01:57:08;;;;;;;;;;;12.60;99.90;;;;;;12474230;28;19926;-86
2022/09/24 02:03:11;;;;;;;;;;;12.60;99.90;;;;;;12475043;28;20289;-86
2022/09/24 02:09:30;;;;;;;;;;;12.70;99.90;;;;;;12473684;28;19925;-86
2022/09/24 02:15:32;;;;;;;;;;;12.70;99.90;;;;;;12476928;28;19940;-86
2022/09/24 02:21:35;;;;;;;;;;;12.70;99.90;;;;;;12482922;28;20285;-86
2022/09/24 02:27:36;;;;;;;;;;;12.70;99.90;;;;;;12458409;28;20009;-86
2022/09/24 02:40:03;;;;;;;;;;;12.60;99.90;;;;;;12468637;28;19925;-86
2022/09/24 02:46:08;;;;;;;;;;;12.70;99.90;;;;;;12477306;28;19941;-86
2022/09/24 02:52:10;;;;;;;;;;;12.60;99.90;;;;;;12465390;28;19936;-86
2022/09/24 02:58:12;;;;;;;;;;;12.80;99.90;;;;;;12473639;28;19925;-86
2022/09/24 03:04:14;;;;;;;;;;;12.70;99.90;;;;;;12467069;28;19925;-86
2022/09/24 03:10:16;;;;;;;;;;;12.70;99.90;;;;;;12483009;28;19929;-86
2022/09/24 03:16:18;;;;;;;;;;;12.60;99.90;;;;;;12481559;28;20396;-86
2022/09/24 03:22:20;;;;;;;;;;;12.60;99.90;;;;;;12472171;28;19926;-86
2022/09/24 03:28:22;;;;;;;;;;;12.60;99.90;;;;;;12459914;28;19929;-86
2022/09/24 03:34:23;;;;;;;;;;;12.60;99.90;;;;;;12490219;28;19925;-86
2022/09/24 03:40:25;;;;;;;;;;;12.50;99.90;;;;;;12469987;28;19937;-86
2022/09/24 03:46:28;;;;;;;;;;;12.40;99.90;;;;;;12478277;28;20385;-86
2022/09/24 03:52:31;;;;;;;;;;;12.30;99.90;;;;;;12461064;28;20385;-86
2022/09/24 03:58:37;;;;;;;;;;;12.30;99.90;;;;;;12470512;28;20312;-86
2022/09/24 04:04:39;;;;;;;;;;;12.40;99.90;;;;;;12472066;28;19926;-86
2022/09/24 04:10:43;;;;;;;;;;;12.30;99.90;;;;;;12424384;28;19940;-86
2022/09/24 04:16:45;;;;;;;;;;;12.10;99.90;;;;;;12407478;28;20393;-85
2022/09/24 04:22:50;;;;;;;;;;;12.30;99.90;;;;;;12411702;28;20279;-86
2022/09/24 04:28:52;;;;;;;;;;;12.20;99.90;;;;;;12400442;28;19936;-85
2022/09/24 04:34:54;;;;;;;;;;;12.30;99.90;;;;;;12409546;28;20309;-86
2022/09/24 04:41:03;;;;;;;;;;;12.30;99.90;;;;;;12421180;28;19938;-86
2022/09/24 04:47:07;;;;;;;;;;;12.40;99.90;;;;;;12434079;28;19930;-86
2022/09/24 04:53:09;;;;;;;;;;;12.20;99.90;;;;;;12410322;28;20313;-85
2022/09/24 04:59:10;;;;;;;;;;;11.90;99.90;;;;;;12398019;28;19937;-86
2022/09/24 05:05:12;;;;;;;;;;;11.90;99.90;;;;;;12415877;28;19933;-85
2022/09/24 05:11:14;;;;;;;;;;;11.90;99.90;;;;;;12422643;28;19971;-86
2022/09/24 05:17:15;;;;;;;;;;;12.00;99.90;;;;;;12408109;28;20722;-86
2022/09/24 05:23:17;;;;;;;;;;;12.10;99.90;;;;;;12410795;28;19936;-86
2022/09/24 05:29:19;;;;;;;;;;;12.20;99.90;;;;;;12394933;28;19926;-86
2022/09/24 05:35:21;;;;;;;;;;;12.30;99.90;;;;;;12412438;28;19929;-86
2022/09/24 05:41:23;;;;;;;;;;;12.00;99.90;;;;;;12406131;28;20044;-86
2022/09/24 05:47:25;;;;;;;;;;;11.90;99.90;;;;;;12407111;28;20405;-87
2022/09/24 05:53:27;;;;;;;;;;;12.00;99.90;;;;;;12392116;28;19930;-86
2022/09/24 05:59:28;;;;;;;;;;;12.00;99.90;;;;;;12392435;28;19926;-86
2022/09/24 06:05:30;;;;;;;;;;;11.90;99.90;;;;;;12431366;28;19929;-86
2022/09/24 06:11:34;;;;;;;;;;;11.90;99.90;;;;;;12461858;28;20278;-86
2022/09/24 06:17:41;;;;;;;;;;;11.90;99.90;;;;;;12468652;28;20365;-86
2022/09/24 06:23:44;;;;;;;;;;;11.90;99.90;;;;;;12486607;28;19926;-86
2022/09/24 06:29:45;;;;;;;;;;;11.90;99.90;;;;;;12458020;28;19933;-86
2022/09/24 06:35:47;;;;;;;;;;;11.80;99.90;;;;;;12471217;28;20305;-85
2022/09/24 06:41:50;;;;;;;;;;;11.80;99.90;;;;;;12478288;28;19925;-85
2022/09/24 06:47:56;;;;;;;;;;;11.80;99.90;;;;;;12485497;28;19932;-85
2022/09/24 06:53:57;;;;;;;;;;;11.80;99.90;;;;;;12470003;28;19936;-85
2022/09/24 06:59:59;;;;;;;;;;;11.80;99.90;;;;;;12466546;28;19925;-84
2022/09/24 07:06:02;;;;;;;;;;;11.80;99.90;;;;;;12400329;28;1783137;-84
2022/09/24 07:12:04;;;;;;;;;;;11.80;99.90;;;;;;12476974;28;19929;-84
2022/09/24 07:18:06;;;;;;;;;;;11.90;99.90;;;;;;12462768;28;19929;-84
2022/09/24 07:24:08;;;;;;;;;;;11.80;99.90;;;;;;12492266;28;19932;-84
2022/09/24 07:30:09;;;;;;;;;;;11.90;99.90;;;;;;12484363;28;20377;-84
2022/09/24 07:36:11;;;;;;;;;;;11.90;99.90;;;;;;12477323;28;20290;-84
2022/09/24 07:42:13;;;;;;;;;;;11.90;99.90;;;;;;12469496;28;20653;-85
2022/09/24 07:48:15;;;;;;;;;;;12.00;99.90;;;;;;12487642;28;20308;-85
2022/09/24 07:54:16;;;;;;;;;;;12.00;99.90;;;;;;12461521;28;19929;-84
2022/09/24 08:00:19;;;;;;;;;;;12.00;99.90;;;;;;12464107;28;19975;-84
2022/09/24 08:06:22;;;;;;;;;;;12.00;99.90;;;;;;12469370;28;19937;-85
2022/09/24 08:12:25;;;;;;;;;;;12.10;99.90;;;;;;12468981;28;20300;-85
2022/09/24 08:18:30;;;;;;;;;;;12.20;99.90;;;;;;12454512;28;19932;-84
2022/09/24 08:24:32;;;;;;;;;;;12.30;99.90;;;;;;12474699;28;19925;-85
2022/09/24 08:30:34;;;;;;;;;;;12.30;99.90;;;;;;12465880;28;19933;-84
2022/09/24 08:36:35;;;;;;;;;;;12.30;99.90;;;;;;12475987;28;19933;-84
2022/09/24 08:42:48;;;;;;;;;;;12.40;99.90;;;;;;12469003;28;19926;-84
2022/09/24 08:48:51;;;;;;;;;;;12.40;99.90;;;;;;12481200;28;20015;-84
2022/09/24 08:54:55;;;;;;;;;;;12.60;99.90;;;;;;12456164;28;19926;-85
2022/09/24 09:01:09;;;;;;;;;;;12.60;99.90;;;;;;12468958;28;19929;-84
2022/09/24 09:07:18;;;;;;;;;;;12.70;99.90;;;;;;12462347;28;20381;-85
2022/09/24 09:13:24;;;;;;;;;;;12.80;99.90;;;;;;12466407;28;19926;-84
2022/09/24 09:19:28;;;;;;;;;;;12.90;99.90;;;;;;12462138;28;20381;-84
2022/09/24 09:25:32;;;;;;;;;;;12.90;99.90;;;;;;12474946;28;19925;-84
2022/09/24 09:31:48;;;;;;;;;;;13.00;99.90;;;;;;12454132;28;19929;-85
2022/09/24 09:38:18;;;;;;;;;;;13.00;99.90;;;;;;12472234;28;20170;-85
2022/09/24 09:44:22;;;;;;;;;;;13.00;99.90;;;;;;12475075;28;19974;-85
2022/09/24 09:50:27;;;;;;;;;;;13.10;99.90;;;;;;12463890;28;19932;-85
2022/09/24 09:56:28;;;;;;;;;;;13.10;99.90;;;;;;12450948;28;20381;-84
2022/09/24 10:02:32;;;;;;;;;;;13.20;99.90;;;;;;12467714;28;19929;-84
2022/09/24 10:08:34;;;;;;;;;;;13.20;99.90;;;;;;12468839;28;19933;-84
2022/09/24 10:14:36;;;;;;;;;;;13.20;99.90;;;;;;12462464;28;20341;-85
2022/09/24 10:20:37;;;;;;;;;;;13.30;99.90;;;;;;12460301;28;19925;-84
2022/09/24 10:26:40;;;;;;;;;;;13.30;99.90;;;;;;12469395;28;19926;-84
2022/09/24 10:32:47;;;;;;;;;;;13.30;99.90;;;;;;12451023;28;20645;-84
2022/09/24 10:39:00;;;;;;;;;;;13.40;99.90;;;;;;12461011;28;19951;-84
2022/09/24 10:45:03;;;;;;;;;;;13.50;99.90;;;;;;12467973;28;19936;-85
2022/09/24 10:51:23;;;;;;;;;;;13.50;99.90;;;;;;12468195;28;19971;-85
2022/09/24 10:57:48;;;;;;;;;;;13.50;99.90;;;;;;12459088;28;19933;-85
2022/09/24 11:04:01;;;;;;;;;;;13.50;99.90;;;;;;12461780;28;19933;-85
2022/09/24 11:10:26;;;;;;;;;;;13.50;99.90;;;;;;12451753;28;19990;-84
2022/09/24 11:16:31;;;;;;;;;;;13.70;99.90;;;;;;12457751;28;19932;-85
2022/09/24 11:22:38;;;;;;;;;;;13.80;99.90;;;;;;12478794;28;19929;-84
2022/09/24 11:28:43;;;;;;;;;;;13.80;99.90;;;;;;12455014;28;19925;-85
2022/09/24 11:34:53;;;;;;;;;;;13.90;99.90;;;;;;12486210;28;19925;-84
2022/09/24 11:40:57;;;;;;;;;;;13.90;99.90;;;;;;12482591;28;19925;-85
2022/09/24 11:47:16;;;;;;;;;;;14.00;99.90;;;;;;12484253;28;19925;-84
2022/09/24 11:53:54;;;;;;;;;;;14.00;99.90;;;;;;12452569;28;19965;-85
2022/09/24 11:59:59;;;;;;;;;;;14.10;99.90;;;;;;12468154;28;19925;-85
2022/09/24 12:06:04;;;;;;;;;;;14.20;99.90;;;;;;12482511;28;19933;-85
2022/09/24 12:12:19;;;;;;;;;;;14.20;99.90;;;;;;12478126;28;19932;-85
2022/09/24 12:18:26;;;;;;;;;;;14.20;99.90;;;;;;12464325;28;19929;-85
2022/09/24 12:24:30;;;;;;;;;;;14.20;99.90;;;;;;12484967;28;19925;-86
2022/09/24 12:37:05;;;;;;;;;;;14.10;99.90;;;;;;12471412;28;19929;-86
2022/09/24 12:43:12;;;;;;;;;;;14.10;99.90;;;;;;12467329;28;19933;-85
2022/09/24 12:49:17;;;;;;;;;;;14.20;99.90;;;;;;12482377;28;20366;-85
2022/09/24 12:55:21;;;;;;;;;;;14.20;99.90;;;;;;12474846;28;20413;-84
2022/09/24 13:01:23;;;;;;;;;;;14.30;99.90;;;;;;12461790;28;19929;-85
2022/09/24 13:07:33;;;;;;;;;;;14.30;99.90;;;;;;12458509;28;19925;-84
2022/09/24 13:13:42;;;;;;;;;;;14.30;99.90;;;;;;12471264;28;19929;-85
2022/09/24 13:19:45;;;;;;;;;;;14.30;99.90;;;;;;12465534;28;19925;-85
2022/09/24 13:25:54;;;;;;;;;;;14.30;99.90;;;;;;12475404;28;19944;-85
2022/09/24 13:32:01;;;;;;;;;;;14.20;99.90;;;;;;12457572;28;20409;-84
2022/09/24 13:38:26;;;;;;;;;;;14.30;99.90;;;;;;12474951;28;19926;-84
2022/09/24 13:44:35;;;;;;;;;;;14.10;99.90;;;;;;12474469;28;19930;-84
2022/09/24 13:50:39;;;;;;;;;;;14.20;99.90;;;;;;12480723;28;19929;-84
2022/09/24 13:56:41;;;;;;;;;;;14.10;99.90;;;;;;12455607;28;19934;-84
2022/09/24 14:02:45;;;;;;;;;;;14.00;99.90;;;;;;12476345;28;19932;-84
2022/09/24 14:08:46;;;;;;;;;;;13.90;99.90;;;;;;12460417;28;19930;-84
2022/09/24 14:14:52;;;;;;;;;;;13.80;99.90;;;;;;12460440;28;19929;-84
2022/09/24 14:21:06;;;;;;;;;;;13.80;99.90;;;;;;12473616;28;19932;-83
2022/09/24 14:27:11;;;;;;;;;;;13.80;99.90;;;;;;12467014;28;20333;-83
2022/09/24 14:33:15;;;;;;;;;;;13.80;99.90;;;;;;12449849;28;19926;-84
2022/09/24 14:39:17;;;;;;;;;;;13.70;99.90;;;;;;12472045;28;19925;-84
2022/09/24 14:45:20;;;;;;;;;;;13.80;99.90;;;;;;12466427;28;19932;-84
2022/09/24 14:51:26;;;;;;;;;;;13.80;99.90;;;;;;12470029;28;19936;-83
2022/09/24 14:57:34;;;;;;;;;;;13.70;99.90;;;;;;12465428;28;19933;-83
2022/09/24 15:03:35;;;;;;;;;;;13.60;99.90;;;;;;12474796;28;20393;-83
2022/09/24 15:09:38;;;;;;;;;;;13.60;99.90;;;;;;12467964;28;19979;-84
2022/09/24 15:15:40;;;;;;;;;;;13.70;99.90;;;;;;12469001;28;19925;-83
2022/09/24 15:21:43;;;;;;;;;;;13.60;99.90;;;;;;12480345;28;19925;-83
2022/09/24 15:27:44;;;;;;;;;;;13.60;99.90;;;;;;12472498;28;19925;-84
2022/09/24 15:33:46;;;;;;;;;;;13.60;99.90;;;;;;12480037;28;19933;-84
2022/09/24 15:39:49;;;;;;;;;;;13.70;99.90;;;;;;12470760;28;19968;-83
2022/09/24 15:45:50;;;;;;;;;;;13.60;99.90;;;;;;12476159;28;19925;-84
2022/09/24 15:51:54;;;;;;;;;;;13.70;99.90;;;;;;12468864;28;19930;-84
2022/09/24 15:57:55;;;;;;;;;;;13.60;99.90;;;;;;12460075;28;19925;-84
2022/09/24 16:03:57;;;;;;;;;;;13.60;99.90;;;;;;12477839;28;19940;-83
2022/09/24 16:09:59;;;;;;;;;;;13.60;99.90;;;;;;12485849;28;19977;-84
2022/09/24 16:16:01;;;;;;;;;;;13.60;99.90;;;;;;12480440;28;19926;-84
2022/09/24 16:22:06;;;;;;;;;;;13.50;99.90;;;;;;12470754;28;19925;-84
2022/09/24 16:28:07;;;;;;;;;;;13.50;99.90;;;;;;12461869;28;19929;-84
2022/09/24 16:34:09;;;;;;;;;;;13.50;99.90;;;;;;12471070;28;19932;-83
2022/09/24 16:40:11;;;;;;;;;;;13.50;99.90;;;;;;12476750;28;19925;-84
2022/09/24 16:46:13;;;;;;;;;;;13.50;99.90;;;;;;12475100;28;20377;-84
2022/09/24 16:52:21;;;;;;;;;;;13.40;99.90;;;;;;12472651;28;19930;-85
2022/09/24 16:58:22;;;;;;;;;;;13.40;99.90;;;;;;12459986;28;20318;-84
2022/09/24 17:04:25;;;;;;;;;;;13.40;99.90;;;;;;12475495;28;19925;-84
2022/09/24 17:10:27;;;;;;;;;;;13.30;99.90;;;;;;12474873;28;19926;-84
2022/09/24 17:16:29;;;;;;;;;;;13.40;99.90;;;;;;12478256;28;19921;-84
2022/09/24 17:22:31;;;;;;;;;;;13.30;99.90;;;;;;12545191;28;19933;-85
2022/09/24 17:28:33;;;;;;;;;;;13.20;99.90;;;;;;12529798;28;19946;-85
2022/09/24 17:34:35;;;;;;;;;;;13.20;99.90;;;;;;12514000;28;19936;-85
2022/09/24 17:40:36;;;;;;;;;;;13.30;99.90;;;;;;12524042;28;19945;-84
2022/09/24 17:46:38;;;;;;;;;;;13.20;99.90;;;;;;12509302;28;19936;-84
2022/09/24 17:52:40;;;;;;;;;;;13.10;99.90;;;;;;12463291;28;19929;-84
2022/09/24 17:58:43;;;;;;;;;;;13.20;99.90;;;;;;12477576;28;19936;-84
2022/09/24 18:04:45;;;;;;;;;;;13.20;99.90;;;;;;12483480;28;19932;-84
2022/09/24 18:10:46;;;;;;;;;;;13.20;99.90;;;;;;12478524;28;19926;-84
2022/09/24 18:16:48;;;;;;;;;;;13.20;99.90;;;;;;12463569;28;19929;-84
2022/09/24 18:22:50;;;;;;;;;;;13.10;99.90;;;;;;12473419;28;19926;-84
2022/09/24 18:28:53;;;;;;;;;;;13.10;99.90;;;;;;12459907;28;19925;-84
2022/09/24 18:34:54;;;;;;;;;;;13.10;99.90;;;;;;12484609;28;19932;-84
2022/09/24 18:41:00;;;;;;;;;;;13.10;99.90;;;;;;12468306;28;20370;-84
2022/09/24 18:47:02;;;;;;;;;;;13.10;99.90;;;;;;12495173;28;19926;-84
2022/09/24 18:53:03;;;;;;;;;;;13.10;99.90;;;;;;12489818;28;19926;-84
2022/09/24 18:59:16;;;;;;;;;;;13.20;99.90;;;;;;12478053;28;20334;-84
2022/09/24 19:05:20;;;;;;;;;;;13.20;99.90;;;;;;12457191;28;19936;-84
2022/09/24 19:11:22;;;;;;;;;;;13.30;99.90;;;;;;12482228;28;19925;-84
2022/09/24 19:17:24;;;;;;;;;;;13.30;99.90;;;;;;12476256;28;19933;-84
2022/09/24 19:23:25;;;;;;;;;;;13.20;99.90;;;;;;12474356;28;19932;-84
2022/09/24 19:29:28;;;;;;;;;;;13.20;99.90;;;;;;12469485;28;19932;-84
2022/09/24 19:35:30;;;;;;;;;;;13.00;99.90;;;;;;12464779;28;19926;-84
2022/09/24 19:41:32;;;;;;;;;;;13.00;99.90;;;;;;12471484;28;19932;-84
2022/09/24 19:47:33;;;;;;;;;;;13.00;99.90;;;;;;12473566;28;19926;-84
2022/09/24 19:53:35;;;;;;;;;;;13.00;99.90;;;;;;12464221;28;19926;-84
2022/09/24 19:59:37;;;;;;;;;;;12.90;99.90;;;;;;12464167;28;19936;-84
2022/09/24 20:05:39;;;;;;;;;;;12.90;99.90;;;;;;12470778;28;19928;-84
2022/09/24 20:11:41;;;;;;;;;;;12.90;99.90;;;;;;12466129;28;20806;-84
2022/09/24 20:17:43;;;;;;;;;;;12.80;99.90;;;;;;12470749;28;20766;-84
2022/09/24 20:23:45;;;;;;;;;;;12.90;99.90;;;;;;12467187;28;19926;-84
2022/09/24 20:29:47;;;;;;;;;;;12.80;99.90;;;;;;12455947;28;19927;-84
2022/09/24 20:35:49;;;;;;;;;;;12.70;99.90;;;;;;12469278;28;19929;-84
2022/09/24 20:41:50;;;;;;;;;;;12.70;99.90;;;;;;12479328;28;19925;-84
2022/09/24 20:47:52;;;;;;;;;;;12.70;99.90;;;;;;12475585;28;19925;-84
2022/09/24 20:53:54;;;;;;;;;;;12.70;99.90;;;;;;12461500;28;19925;-84
2022/09/24 20:59:55;;;;;;;;;;;12.70;99.90;;;;;;12456943;28;19932;-84
2022/09/24 21:06:04;;;;;;;;;;;12.60;99.90;;;;;;12468728;28;19929;-84
2022/09/24 21:12:07;;;;;;;;;;;12.60;99.90;;;;;;12464830;28;19930;-85
2022/09/24 21:18:09;;;;;;;;;;;12.50;99.90;;;;;;12474968;28;19930;-85
2022/09/24 21:24:24;;;;;;;;;;;12.60;99.90;;;;;;12473530;28;20076;-85
2022/09/24 21:30:32;;;;;;;;;;;12.70;99.90;;;;;;12473863;28;20308;-84
2022/09/24 21:36:35;;;;;;;;;;;12.50;99.90;;;;;;12460075;28;19925;-84
2022/09/24 21:42:46;;;;;;;;;;;12.60;99.90;;;;;;12465199;28;19925;-85
2022/09/24 21:48:48;;;;;;;;;;;12.60;99.90;;;;;;12467967;28;19925;-85
2022/09/24 21:54:49;;;;;;;;;;;12.50;99.90;;;;;;12463578;28;19938;-84
2022/09/24 22:00:51;;;;;;;;;;;12.40;99.90;;;;;;12465582;28;19932;-85
2022/09/24 22:06:53;;;;;;;;;;;12.50;99.90;;;;;;12468874;28;19933;-84
2022/09/24 22:12:55;;;;;;;;;;;12.50;99.90;;;;;;12467437;28;19930;-85
2022/09/24 22:18:57;;;;;;;;;;;12.60;99.90;;;;;;12461017;28;19936;-85
2022/09/24 22:24:59;;;;;;;;;;;12.50;99.90;;;;;;12458771;28;19933;-84
2022/09/24 22:31:03;;;;;;;;;;;12.60;99.90;;;;;;12453063;28;19951;-85
2022/09/24 22:37:05;;;;;;;;;;;12.50;99.90;;;;;;12466421;28;19933;-85
2022/09/24 22:43:07;;;;;;;;;;;12.40;99.90;;;;;;12449823;28;19925;-84
2022/09/24 22:49:09;;;;;;;;;;;12.40;99.90;;;;;;12472481;28;19929;-85
2022/09/24 22:55:11;;;;;;;;;;;12.60;99.90;;;;;;12453803;28;20396;-84
2022/09/24 23:01:16;;;;;;;;;;;12.40;99.90;;;;;;12455277;28;20392;-85
2022/09/24 23:07:18;;;;;;;;;;;12.60;99.90;;;;;;12452704;28;19926;-85
2022/09/24 23:13:20;;;;;;;;;;;12.60;99.90;;;;;;12466063;28;19926;-85
2022/09/24 23:19:21;;;;;;;;;;;12.50;99.90;;;;;;12471775;28;19925;-84
2022/09/24 23:25:23;;;;;;;;;;;12.30;99.90;;;;;;12478439;28;19932;-85
2022/09/24 23:31:26;;;;;;;;;;;12.30;99.90;;;;;;12471688;28;19933;-85
2022/09/24 23:37:28;;;;;;;;;;;12.20;99.90;;;;;;12462261;28;19925;-85
2022/09/24 23:43:30;;;;;;;;;;;12.30;99.90;;;;;;12464316;28;20329;-84
2022/09/24 23:49:31;;;;;;;;;;;12.30;99.90;;;;;;12471496;28;19929;-84
2022/09/24 23:55:33;;;;;;;;;;;12.30;99.90;;;;;;12475288;28;19933;-84
